sensor_id;sensor_type;location;lat;lon;timestamp;P1;durP1;ratioP1;P2;durP2;ratioP2
50225;SDS011;36113;50.742;6.432;2023-05-18T00:02:01;11.20;;;4.15;;
50225;SDS011;36113;50.742;6.432;2023-05-18T00:04:34;16.08;;;4.40;;
50225;SDS011;36113;50.742;6.432;2023-05-18T00:07:01;13.20;;;4.35;;
50225;SDS011;36113;50.742;6.432;2023-05-18T00:09:31;12.07;;;4.50;;
50225;SDS011;36113;50.742;6.432;2023-05-18T00:11:58;9.15;;;3.90;;
50225;SDS011;36113;50.742;6.432;2023-05-18T00:14:24;17.03;;;4.30;;
50225;SDS011;36113;50.742;6.432;2023-05-18T00:16:49;11.13;;;4.45;;
50225;SDS011;36113;50.742;6.432;2023-05-18T00:19:17;13.65;;;4.68;;
50225;SDS011;36113;50.742;6.432;2023-05-18T00:21:44;10.32;;;4.93;;
50225;SDS011;36113;50.742;6.432;2023-05-18T00:24:11;12.20;;;4.25;;
50225;SDS011;36113;50.742;6.432;2023-05-18T00:26:40;7.97;;;4.00;;
50225;SDS011;36113;50.742;6.432;2023-05-18T00:29:07;12.88;;;4.63;;
50225;SDS011;36113;50.742;6.432;2023-05-18T00:31:33;9.68;;;4.95;;
50225;SDS011;36113;50.742;6.432;2023-05-18T00:34:03;8.18;;;3.85;;
50225;SDS011;36113;50.742;6.432;2023-05-18T00:36:33;11.52;;;4.32;;
50225;SDS011;36113;50.742;6.432;2023-05-18T00:38:58;12.00;;;3.88;;
50225;SDS011;36113;50.742;6.432;2023-05-18T00:41:24;11.98;;;4.07;;
50225;SDS011;36113;50.742;6.432;2023-05-18T00:43:51;9.32;;;4.38;;
50225;SDS011;36113;50.742;6.432;2023-05-18T00:46:17;16.52;;;4.85;;
50225;SDS011;36113;50.742;6.432;2023-05-18T00:48:42;11.48;;;4.70;;
50225;SDS011;36113;50.742;6.432;2023-05-18T00:51:08;10.93;;;4.85;;
50225;SDS011;36113;50.742;6.432;2023-05-18T00:53:34;7.93;;;4.32;;
50225;SDS011;36113;50.742;6.432;2023-05-18T00:56:01;14.63;;;4.47;;
50225;SDS011;36113;50.742;6.432;2023-05-18T00:58:26;9.10;;;4.47;;
50225;SDS011;36113;50.742;6.432;2023-05-18T01:00:52;11.68;;;4.88;;
50225;SDS011;36113;50.742;6.432;2023-05-18T01:03:17;15.80;;;4.57;;
50225;SDS011;36113;50.742;6.432;2023-05-18T01:05:45;11.23;;;4.70;;
50225;SDS011;36113;50.742;6.432;2023-05-18T01:08:19;8.55;;;4.65;;
50225;SDS011;36113;50.742;6.432;2023-05-18T01:10:45;10.93;;;4.33;;
50225;SDS011;36113;50.742;6.432;2023-05-18T01:13:28;11.65;;;5.15;;
50225;SDS011;36113;50.742;6.432;2023-05-18T01:16:00;13.10;;;4.75;;
50225;SDS011;36113;50.742;6.432;2023-05-18T01:18:33;9.55;;;4.20;;
50225;SDS011;36113;50.742;6.432;2023-05-18T01:21:10;8.57;;;4.43;;
50225;SDS011;36113;50.742;6.432;2023-05-18T01:24:18;13.60;;;4.45;;
50225;SDS011;36113;50.742;6.432;2023-05-18T01:26:50;10.52;;;4.43;;
50225;SDS011;36113;50.742;6.432;2023-05-18T01:29:21;10.90;;;4.47;;
50225;SDS011;36113;50.742;6.432;2023-05-18T01:31:48;11.60;;;4.82;;
50225;SDS011;36113;50.742;6.432;2023-05-18T01:34:14;10.18;;;4.75;;
50225;SDS011;36113;50.742;6.432;2023-05-18T01:36:39;15.43;;;4.82;;
50225;SDS011;36113;50.742;6.432;2023-05-18T01:39:04;14.35;;;4.82;;
50225;SDS011;36113;50.742;6.432;2023-05-18T01:41:30;12.73;;;4.25;;
50225;SDS011;36113;50.742;6.432;2023-05-18T01:46:31;20.05;;;5.10;;
50225;SDS011;36113;50.742;6.432;2023-05-18T01:49:06;10.60;;;4.57;;
50225;SDS011;36113;50.742;6.432;2023-05-18T01:51:39;14.48;;;5.13;;
50225;SDS011;36113;50.742;6.432;2023-05-18T01:54:08;8.23;;;5.03;;
50225;SDS011;36113;50.742;6.432;2023-05-18T01:56:36;11.90;;;4.88;;
50225;SDS011;36113;50.742;6.432;2023-05-18T02:01:29;9.73;;;4.55;;
50225;SDS011;36113;50.742;6.432;2023-05-18T02:03:54;19.02;;;5.75;;
50225;SDS011;36113;50.742;6.432;2023-05-18T02:06:20;14.20;;;4.85;;
50225;SDS011;36113;50.742;6.432;2023-05-18T02:08:45;11.73;;;4.88;;
50225;SDS011;36113;50.742;6.432;2023-05-18T02:11:11;10.30;;;5.18;;
50225;SDS011;36113;50.742;6.432;2023-05-18T02:13:36;13.98;;;5.05;;
50225;SDS011;36113;50.742;6.432;2023-05-18T02:16:02;19.58;;;5.72;;
50225;SDS011;36113;50.742;6.432;2023-05-18T02:18:28;9.73;;;4.80;;
50225;SDS011;36113;50.742;6.432;2023-05-18T02:20:57;12.82;;;5.38;;
50225;SDS011;36113;50.742;6.432;2023-05-18T02:23:23;15.63;;;5.95;;
50225;SDS011;36113;50.742;6.432;2023-05-18T02:25:49;10.88;;;5.28;;
50225;SDS011;36113;50.742;6.432;2023-05-18T02:28:14;13.13;;;5.97;;
50225;SDS011;36113;50.742;6.432;2023-05-18T02:30:40;8.27;;;5.70;;
50225;SDS011;36113;50.742;6.432;2023-05-18T02:33:05;11.98;;;5.75;;
50225;SDS011;36113;50.742;6.432;2023-05-18T02:35:33;8.65;;;5.90;;
50225;SDS011;36113;50.742;6.432;2023-05-18T02:37:58;9.02;;;5.55;;
50225;SDS011;36113;50.742;6.432;2023-05-18T02:40:24;11.70;;;5.82;;
50225;SDS011;36113;50.742;6.432;2023-05-18T02:42:49;11.35;;;6.30;;
50225;SDS011;36113;50.742;6.432;2023-05-18T02:45:15;9.95;;;5.18;;
50225;SDS011;36113;50.742;6.432;2023-05-18T02:47:40;14.10;;;5.95;;
50225;SDS011;36113;50.742;6.432;2023-05-18T02:50:08;10.52;;;5.55;;
50225;SDS011;36113;50.742;6.432;2023-05-18T02:52:33;10.98;;;5.85;;
50225;SDS011;36113;50.742;6.432;2023-05-18T02:54:59;12.52;;;5.05;;
50225;SDS011;36113;50.742;6.432;2023-05-18T02:57:24;13.45;;;6.20;;
50225;SDS011;36113;50.742;6.432;2023-05-18T02:59:50;11.48;;;6.35;;
50225;SDS011;36113;50.742;6.432;2023-05-18T03:02:16;13.98;;;5.80;;
50225;SDS011;36113;50.742;6.432;2023-05-18T03:04:41;17.75;;;7.47;;
50225;SDS011;36113;50.742;6.432;2023-05-18T03:07:07;13.63;;;5.78;;
50225;SDS011;36113;50.742;6.432;2023-05-18T03:09:32;10.43;;;6.25;;
50225;SDS011;36113;50.742;6.432;2023-05-18T03:11:58;14.65;;;6.25;;
50225;SDS011;36113;50.742;6.432;2023-05-18T03:14:23;12.13;;;6.70;;
50225;SDS011;36113;50.742;6.432;2023-05-18T03:16:48;15.27;;;5.75;;
50225;SDS011;36113;50.742;6.432;2023-05-18T03:19:18;17.27;;;6.68;;
50225;SDS011;36113;50.742;6.432;2023-05-18T03:21:44;14.85;;;6.18;;
50225;SDS011;36113;50.742;6.432;2023-05-18T03:24:09;10.25;;;6.25;;
50225;SDS011;36113;50.742;6.432;2023-05-18T03:26:38;14.02;;;6.38;;
50225;SDS011;36113;50.742;6.432;2023-05-18T03:29:05;17.98;;;5.90;;
50225;SDS011;36113;50.742;6.432;2023-05-18T03:31:31;12.25;;;6.25;;
50225;SDS011;36113;50.742;6.432;2023-05-18T03:33:56;10.63;;;5.50;;
50225;SDS011;36113;50.742;6.432;2023-05-18T03:36:21;14.02;;;6.03;;
50225;SDS011;36113;50.742;6.432;2023-05-18T03:38:49;14.68;;;6.43;;
50225;SDS011;36113;50.742;6.432;2023-05-18T03:41:14;15.98;;;6.28;;
50225;SDS011;36113;50.742;6.432;2023-05-18T03:43:40;10.65;;;6.70;;
50225;SDS011;36113;50.742;6.432;2023-05-18T03:46:05;15.27;;;7.13;;
50225;SDS011;36113;50.742;6.432;2023-05-18T03:48:30;9.05;;;6.30;;
50225;SDS011;36113;50.742;6.432;2023-05-18T03:50:56;21.40;;;6.50;;
50225;SDS011;36113;50.742;6.432;2023-05-18T03:53:21;10.07;;;6.18;;
50225;SDS011;36113;50.742;6.432;2023-05-18T03:55:47;13.45;;;6.53;;
50225;SDS011;36113;50.742;6.432;2023-05-18T03:58:16;10.85;;;6.22;;
50225;SDS011;36113;50.742;6.432;2023-05-18T04:00:44;16.27;;;6.80;;
50225;SDS011;36113;50.742;6.432;2023-05-18T04:03:09;11.32;;;5.93;;
50225;SDS011;36113;50.742;6.432;2023-05-18T04:05:37;13.63;;;7.20;;
50225;SDS011;36113;50.742;6.432;2023-05-18T04:08:03;19.38;;;6.60;;
50225;SDS011;36113;50.742;6.432;2023-05-18T04:10:29;14.05;;;6.82;;
50225;SDS011;36113;50.742;6.432;2023-05-18T04:12:54;10.73;;;6.43;;
50225;SDS011;36113;50.742;6.432;2023-05-18T04:15:20;18.08;;;7.65;;
50225;SDS011;36113;50.742;6.432;2023-05-18T04:17:45;9.57;;;6.65;;
50225;SDS011;36113;50.742;6.432;2023-05-18T04:20:11;20.55;;;6.97;;
50225;SDS011;36113;50.742;6.432;2023-05-18T04:22:38;11.95;;;6.35;;
50225;SDS011;36113;50.742;6.432;2023-05-18T04:25:07;12.20;;;6.68;;
50225;SDS011;36113;50.742;6.432;2023-05-18T04:27:35;12.27;;;6.35;;
50225;SDS011;36113;50.742;6.432;2023-05-18T04:30:01;12.23;;;6.13;;
50225;SDS011;36113;50.742;6.432;2023-05-18T04:32:26;17.77;;;6.80;;
50225;SDS011;36113;50.742;6.432;2023-05-18T04:34:54;6.63;;;5.90;;
50225;SDS011;36113;50.742;6.432;2023-05-18T04:37:22;10.18;;;5.85;;
50225;SDS011;36113;50.742;6.432;2023-05-18T04:39:48;14.20;;;6.35;;
50225;SDS011;36113;50.742;6.432;2023-05-18T04:42:13;9.85;;;6.00;;
50225;SDS011;36113;50.742;6.432;2023-05-18T04:44:42;11.38;;;6.30;;
50225;SDS011;36113;50.742;6.432;2023-05-18T04:47:08;8.82;;;6.05;;
50225;SDS011;36113;50.742;6.432;2023-05-18T04:49:33;9.88;;;6.47;;
50225;SDS011;36113;50.742;6.432;2023-05-18T04:51:59;12.57;;;6.53;;
50225;SDS011;36113;50.742;6.432;2023-05-18T04:54:25;10.00;;;5.85;;
50225;SDS011;36113;50.742;6.432;2023-05-18T04:56:54;8.15;;;5.90;;
50225;SDS011;36113;50.742;6.432;2023-05-18T04:59:20;15.88;;;6.45;;
50225;SDS011;36113;50.742;6.432;2023-05-18T05:01:50;10.27;;;6.90;;
50225;SDS011;36113;50.742;6.432;2023-05-18T05:04:19;12.50;;;6.28;;
50225;SDS011;36113;50.742;6.432;2023-05-18T05:06:45;15.50;;;7.72;;
50225;SDS011;36113;50.742;6.432;2023-05-18T05:09:10;12.57;;;6.60;;
50225;SDS011;36113;50.742;6.432;2023-05-18T05:11:38;15.82;;;6.80;;
50225;SDS011;36113;50.742;6.432;2023-05-18T05:14:03;12.98;;;6.22;;
50225;SDS011;36113;50.742;6.432;2023-05-18T05:16:28;14.23;;;7.20;;
50225;SDS011;36113;50.742;6.432;2023-05-18T05:18:54;12.07;;;6.78;;
50225;SDS011;36113;50.742;6.432;2023-05-18T05:21:19;13.82;;;6.45;;
50225;SDS011;36113;50.742;6.432;2023-05-18T05:23:44;14.00;;;7.70;;
50225;SDS011;36113;50.742;6.432;2023-05-18T05:26:10;13.25;;;7.38;;
50225;SDS011;36113;50.742;6.432;2023-05-18T05:28:35;13.30;;;7.32;;
50225;SDS011;36113;50.742;6.432;2023-05-18T05:31:01;16.60;;;7.25;;
50225;SDS011;36113;50.742;6.432;2023-05-18T05:33:26;18.00;;;7.55;;
50225;SDS011;36113;50.742;6.432;2023-05-18T05:35:52;20.33;;;7.15;;
50225;SDS011;36113;50.742;6.432;2023-05-18T05:38:17;8.98;;;6.18;;
50225;SDS011;36113;50.742;6.432;2023-05-18T05:40:42;10.05;;;7.75;;
50225;SDS011;36113;50.742;6.432;2023-05-18T05:43:08;12.82;;;7.18;;
50225;SDS011;36113;50.742;6.432;2023-05-18T05:45:33;13.55;;;6.72;;
50225;SDS011;36113;50.742;6.432;2023-05-18T05:47:59;12.57;;;6.70;;
50225;SDS011;36113;50.742;6.432;2023-05-18T05:50:24;16.42;;;7.07;;
50225;SDS011;36113;50.742;6.432;2023-05-18T05:55:16;14.23;;;6.75;;
50225;SDS011;36113;50.742;6.432;2023-05-18T05:57:42;20.35;;;7.03;;
50225;SDS011;36113;50.742;6.432;2023-05-18T06:00:08;13.85;;;6.40;;
50225;SDS011;36113;50.742;6.432;2023-05-18T06:02:37;13.05;;;6.38;;
50225;SDS011;36113;50.742;6.432;2023-05-18T06:05:03;18.50;;;6.23;;
50225;SDS011;36113;50.742;6.432;2023-05-18T06:07:30;18.15;;;7.90;;
50225;SDS011;36113;50.742;6.432;2023-05-18T06:09:55;9.77;;;6.63;;
50225;SDS011;36113;50.742;6.432;2023-05-18T06:12:20;12.23;;;6.38;;
50225;SDS011;36113;50.742;6.432;2023-05-18T06:14:46;11.73;;;6.63;;
50225;SDS011;36113;50.742;6.432;2023-05-18T06:17:11;16.05;;;7.10;;
50225;SDS011;36113;50.742;6.432;2023-05-18T06:19:36;12.23;;;6.75;;
50225;SDS011;36113;50.742;6.432;2023-05-18T06:22:02;12.00;;;6.75;;
50225;SDS011;36113;50.742;6.432;2023-05-18T06:24:27;16.55;;;6.18;;
50225;SDS011;36113;50.742;6.432;2023-05-18T06:26:52;13.30;;;6.05;;
50225;SDS011;36113;50.742;6.432;2023-05-18T06:29:18;12.45;;;5.93;;
50225;SDS011;36113;50.742;6.432;2023-05-18T06:31:43;8.70;;;4.88;;
50225;SDS011;36113;50.742;6.432;2023-05-18T06:34:09;16.10;;;6.65;;
50225;SDS011;36113;50.742;6.432;2023-05-18T06:36:34;8.77;;;5.65;;
50225;SDS011;36113;50.742;6.432;2023-05-18T06:38:59;12.00;;;5.78;;
50225;SDS011;36113;50.742;6.432;2023-05-18T06:41:25;12.48;;;6.53;;
50225;SDS011;36113;50.742;6.432;2023-05-18T06:43:50;14.45;;;6.25;;
50225;SDS011;36113;50.742;6.432;2023-05-18T06:46:19;14.07;;;5.47;;
50225;SDS011;36113;50.742;6.432;2023-05-18T06:48:48;11.55;;;5.60;;
50225;SDS011;36113;50.742;6.432;2023-05-18T06:51:13;11.35;;;5.55;;
50225;SDS011;36113;50.742;6.432;2023-05-18T06:53:40;10.57;;;5.78;;
50225;SDS011;36113;50.742;6.432;2023-05-18T06:56:05;14.75;;;6.82;;
50225;SDS011;36113;50.742;6.432;2023-05-18T06:58:31;6.85;;;5.70;;
50225;SDS011;36113;50.742;6.432;2023-05-18T07:00:56;10.85;;;5.82;;
50225;SDS011;36113;50.742;6.432;2023-05-18T07:03:21;14.57;;;6.55;;
50225;SDS011;36113;50.742;6.432;2023-05-18T07:05:47;10.95;;;6.03;;
50225;SDS011;36113;50.742;6.432;2023-05-18T07:08:12;9.60;;;5.45;;
50225;SDS011;36113;50.742;6.432;2023-05-18T07:10:37;10.68;;;5.53;;
50225;SDS011;36113;50.742;6.432;2023-05-18T07:13:03;11.60;;;5.40;;
50225;SDS011;36113;50.742;6.432;2023-05-18T07:15:28;10.82;;;5.53;;
50225;SDS011;36113;50.742;6.432;2023-05-18T07:17:53;13.88;;;5.68;;
50225;SDS011;36113;50.742;6.432;2023-05-18T07:20:20;16.10;;;4.80;;
50225;SDS011;36113;50.742;6.432;2023-05-18T07:22:45;8.23;;;5.07;;
50225;SDS011;36113;50.742;6.432;2023-05-18T07:25:10;19.10;;;5.50;;
50225;SDS011;36113;50.742;6.432;2023-05-18T07:27:36;11.68;;;5.20;;
50225;SDS011;36113;50.742;6.432;2023-05-18T07:30:01;10.32;;;5.47;;
50225;SDS011;36113;50.742;6.432;2023-05-18T07:32:26;10.98;;;5.30;;
50225;SDS011;36113;50.742;6.432;2023-05-18T07:34:52;8.10;;;5.53;;
50225;SDS011;36113;50.742;6.432;2023-05-18T07:37:17;7.65;;;5.35;;
50225;SDS011;36113;50.742;6.432;2023-05-18T07:39:42;14.98;;;5.90;;
50225;SDS011;36113;50.742;6.432;2023-05-18T07:42:08;10.35;;;5.35;;
50225;SDS011;36113;50.742;6.432;2023-05-18T07:44:33;12.02;;;4.63;;
50225;SDS011;36113;50.742;6.432;2023-05-18T07:46:58;9.43;;;4.53;;
50225;SDS011;36113;50.742;6.432;2023-05-18T07:49:24;9.50;;;5.82;;
50225;SDS011;36113;50.742;6.432;2023-05-18T07:51:49;8.60;;;4.55;;
50225;SDS011;36113;50.742;6.432;2023-05-18T07:54:15;11.60;;;4.80;;
50225;SDS011;36113;50.742;6.432;2023-05-18T07:56:41;8.40;;;4.80;;
50225;SDS011;36113;50.742;6.432;2023-05-18T07:59:08;9.85;;;5.65;;
50225;SDS011;36113;50.742;6.432;2023-05-18T08:01:33;10.63;;;5.95;;
50225;SDS011;36113;50.742;6.432;2023-05-18T08:03:59;11.25;;;5.20;;
50225;SDS011;36113;50.742;6.432;2023-05-18T08:06:25;14.52;;;5.57;;
50225;SDS011;36113;50.742;6.432;2023-05-18T08:08:50;9.38;;;5.45;;
50225;SDS011;36113;50.742;6.432;2023-05-18T08:11:16;10.70;;;5.60;;
50225;SDS011;36113;50.742;6.432;2023-05-18T08:13:41;6.97;;;5.20;;
50225;SDS011;36113;50.742;6.432;2023-05-18T08:16:06;9.95;;;5.50;;
50225;SDS011;36113;50.742;6.432;2023-05-18T08:18:31;8.52;;;5.03;;
50225;SDS011;36113;50.742;6.432;2023-05-18T08:20:57;10.85;;;4.80;;
50225;SDS011;36113;50.742;6.432;2023-05-18T08:23:23;10.98;;;5.13;;
50225;SDS011;36113;50.742;6.432;2023-05-18T08:25:48;9.57;;;5.37;;
50225;SDS011;36113;50.742;6.432;2023-05-18T08:28:14;6.57;;;4.38;;
50225;SDS011;36113;50.742;6.432;2023-05-18T08:30:40;8.65;;;4.72;;
50225;SDS011;36113;50.742;6.432;2023-05-18T08:33:06;7.35;;;3.90;;
50225;SDS011;36113;50.742;6.432;2023-05-18T08:35:32;8.80;;;4.10;;
50225;SDS011;36113;50.742;6.432;2023-05-18T08:37:57;9.00;;;4.55;;
50225;SDS011;36113;50.742;6.432;2023-05-18T08:40:24;7.05;;;3.97;;
50225;SDS011;36113;50.742;6.432;2023-05-18T08:43:04;12.35;;;4.70;;
50225;SDS011;36113;50.742;6.432;2023-05-18T08:45:37;9.45;;;4.30;;
50225;SDS011;36113;50.742;6.432;2023-05-18T08:48:06;9.65;;;4.10;;
50225;SDS011;36113;50.742;6.432;2023-05-18T08:50:34;9.88;;;3.80;;
50225;SDS011;36113;50.742;6.432;2023-05-18T08:53:01;9.88;;;5.13;;
50225;SDS011;36113;50.742;6.432;2023-05-18T08:55:29;10.73;;;4.30;;
50225;SDS011;36113;50.742;6.432;2023-05-18T08:58:01;8.57;;;4.15;;
50225;SDS011;36113;50.742;6.432;2023-05-18T09:00:27;6.40;;;4.78;;
50225;SDS011;36113;50.742;6.432;2023-05-18T09:02:53;9.82;;;4.68;;
50225;SDS011;36113;50.742;6.432;2023-05-18T09:05:19;9.25;;;4.97;;
50225;SDS011;36113;50.742;6.432;2023-05-18T09:07:45;9.45;;;4.25;;
50225;SDS011;36113;50.742;6.432;2023-05-18T09:10:12;6.65;;;4.10;;
50225;SDS011;36113;50.742;6.432;2023-05-18T09:12:40;14.77;;;4.47;;
50225;SDS011;36113;50.742;6.432;2023-05-18T09:15:09;6.20;;;3.90;;
50225;SDS011;36113;50.742;6.432;2023-05-18T09:17:35;7.40;;;4.15;;
50225;SDS011;36113;50.742;6.432;2023-05-18T09:20:01;8.07;;;4.35;;
50225;SDS011;36113;50.742;6.432;2023-05-18T09:22:29;17.17;;;4.75;;
50225;SDS011;36113;50.742;6.432;2023-05-18T09:24:55;10.15;;;4.20;;
50225;SDS011;36113;50.742;6.432;2023-05-18T09:27:20;13.20;;;4.80;;
50225;SDS011;36113;50.742;6.432;2023-05-18T09:29:52;8.75;;;5.13;;
50225;SDS011;36113;50.742;6.432;2023-05-18T09:32:19;7.55;;;4.38;;
50225;SDS011;36113;50.742;6.432;2023-05-18T09:34:45;9.57;;;4.70;;
50225;SDS011;36113;50.742;6.432;2023-05-18T09:39:40;11.73;;;5.53;;
50225;SDS011;36113;50.742;6.432;2023-05-18T09:42:06;9.95;;;4.20;;
50225;SDS011;36113;50.742;6.432;2023-05-18T09:44:34;5.93;;;3.80;;
50225;SDS011;36113;50.742;6.432;2023-05-18T09:47:01;13.93;;;4.45;;
50225;SDS011;36113;50.742;6.432;2023-05-18T09:49:31;10.13;;;4.15;;
50225;SDS011;36113;50.742;6.432;2023-05-18T09:51:56;8.70;;;3.85;;
50225;SDS011;36113;50.742;6.432;2023-05-18T09:54:24;12.80;;;3.65;;
50225;SDS011;36113;50.742;6.432;2023-05-18T09:56:49;8.00;;;4.20;;
50225;SDS011;36113;50.742;6.432;2023-05-18T09:59:15;14.07;;;4.63;;
50225;SDS011;36113;50.742;6.432;2023-05-18T10:02:01;7.60;;;3.83;;
50225;SDS011;36113;50.742;6.432;2023-05-18T10:04:42;7.90;;;4.25;;
50225;SDS011;36113;50.742;6.432;2023-05-18T10:07:11;9.07;;;4.30;;
50225;SDS011;36113;50.742;6.432;2023-05-18T10:09:41;8.48;;;4.45;;
50225;SDS011;36113;50.742;6.432;2023-05-18T10:12:14;6.13;;;4.30;;
50225;SDS011;36113;50.742;6.432;2023-05-18T10:14:44;12.23;;;4.25;;
50225;SDS011;36113;50.742;6.432;2023-05-18T10:17:11;7.82;;;3.97;;
50225;SDS011;36113;50.742;6.432;2023-05-18T10:19:37;7.15;;;4.13;;
50225;SDS011;36113;50.742;6.432;2023-05-18T10:22:05;6.95;;;3.63;;
50225;SDS011;36113;50.742;6.432;2023-05-18T10:24:33;6.85;;;4.30;;
50225;SDS011;36113;50.742;6.432;2023-05-18T10:27:06;10.43;;;4.07;;
50225;SDS011;36113;50.742;6.432;2023-05-18T10:29:33;11.05;;;4.00;;
50225;SDS011;36113;50.742;6.432;2023-05-18T10:32:00;7.20;;;3.42;;
50225;SDS011;36113;50.742;6.432;2023-05-18T10:34:28;8.85;;;3.88;;
50225;SDS011;36113;50.742;6.432;2023-05-18T10:36:55;11.10;;;3.45;;
50225;SDS011;36113;50.742;6.432;2023-05-18T10:39:21;5.72;;;3.10;;
50225;SDS011;36113;50.742;6.432;2023-05-18T10:41:48;7.78;;;2.92;;
50225;SDS011;36113;50.742;6.432;2023-05-18T10:44:15;9.57;;;4.07;;
50225;SDS011;36113;50.742;6.432;2023-05-18T10:46:41;5.70;;;3.95;;
50225;SDS011;36113;50.742;6.432;2023-05-18T10:49:07;14.45;;;3.95;;
50225;SDS011;36113;50.742;6.432;2023-05-18T10:51:37;9.13;;;4.00;;
50225;SDS011;36113;50.742;6.432;2023-05-18T10:54:10;10.23;;;4.47;;
50225;SDS011;36113;50.742;6.432;2023-05-18T10:56:42;7.68;;;4.10;;
50225;SDS011;36113;50.742;6.432;2023-05-18T10:59:10;7.20;;;3.92;;
50225;SDS011;36113;50.742;6.432;2023-05-18T11:01:37;9.20;;;4.40;;
50225;SDS011;36113;50.742;6.432;2023-05-18T11:04:05;8.98;;;5.65;;
50225;SDS011;36113;50.742;6.432;2023-05-18T11:06:31;6.10;;;4.38;;
50225;SDS011;36113;50.742;6.432;2023-05-18T11:08:59;6.22;;;4.00;;
50225;SDS011;36113;50.742;6.432;2023-05-18T11:11:24;7.47;;;4.63;;
50225;SDS011;36113;50.742;6.432;2023-05-18T11:13:53;6.20;;;4.03;;
50225;SDS011;36113;50.742;6.432;2023-05-18T11:16:31;12.32;;;4.32;;
50225;SDS011;36113;50.742;6.432;2023-05-18T11:19:03;11.15;;;4.65;;
50225;SDS011;36113;50.742;6.432;2023-05-18T11:26:46;8.13;;;4.13;;
50225;SDS011;36113;50.742;6.432;2023-05-18T11:31:47;11.43;;;4.20;;
50225;SDS011;36113;50.742;6.432;2023-05-18T11:34:33;10.13;;;4.70;;
50225;SDS011;36113;50.742;6.432;2023-05-18T11:37:04;10.90;;;4.45;;
50225;SDS011;36113;50.742;6.432;2023-05-18T11:39:31;11.77;;;4.27;;
50225;SDS011;36113;50.742;6.432;2023-05-18T11:41:57;11.52;;;4.43;;
50225;SDS011;36113;50.742;6.432;2023-05-18T11:44:29;5.22;;;4.07;;
50225;SDS011;36113;50.742;6.432;2023-05-18T11:49:23;6.30;;;4.32;;
50225;SDS011;36113;50.742;6.432;2023-05-18T11:52:16;9.18;;;4.07;;
50225;SDS011;36113;50.742;6.432;2023-05-18T11:54:52;12.73;;;4.57;;
50225;SDS011;36113;50.742;6.432;2023-05-18T11:57:25;7.57;;;4.47;;
50225;SDS011;36113;50.742;6.432;2023-05-18T11:59:54;10.50;;;4.20;;
50225;SDS011;36113;50.742;6.432;2023-05-18T12:02:29;8.77;;;3.95;;
50225;SDS011;36113;50.742;6.432;2023-05-18T12:04:56;9.00;;;3.35;;
50225;SDS011;36113;50.742;6.432;2023-05-18T12:07:24;6.63;;;3.90;;
50225;SDS011;36113;50.742;6.432;2023-05-18T12:09:52;5.50;;;3.90;;
50225;SDS011;36113;50.742;6.432;2023-05-18T12:12:21;10.35;;;4.18;;
50225;SDS011;36113;50.742;6.432;2023-05-18T12:14:57;8.13;;;4.40;;
50225;SDS011;36113;50.742;6.432;2023-05-18T12:17:40;9.73;;;4.47;;
50225;SDS011;36113;50.742;6.432;2023-05-18T12:20:08;9.98;;;4.15;;
50225;SDS011;36113;50.742;6.432;2023-05-18T12:22:35;7.47;;;3.95;;
50225;SDS011;36113;50.742;6.432;2023-05-18T12:25:01;11.40;;;4.82;;
50225;SDS011;36113;50.742;6.432;2023-05-18T12:27:26;4.80;;;3.90;;
50225;SDS011;36113;50.742;6.432;2023-05-18T12:29:52;8.02;;;3.92;;
50225;SDS011;36113;50.742;6.432;2023-05-18T12:32:18;9.23;;;3.80;;
50225;SDS011;36113;50.742;6.432;2023-05-18T12:34:43;7.47;;;4.33;;
50225;SDS011;36113;50.742;6.432;2023-05-18T12:37:09;12.95;;;4.65;;
50225;SDS011;36113;50.742;6.432;2023-05-18T12:39:35;8.73;;;4.40;;
50225;SDS011;36113;50.742;6.432;2023-05-18T12:42:13;12.90;;;4.13;;
50225;SDS011;36113;50.742;6.432;2023-05-18T12:44:40;6.93;;;3.97;;
50225;SDS011;36113;50.742;6.432;2023-05-18T12:47:08;5.95;;;4.18;;
50225;SDS011;36113;50.742;6.432;2023-05-18T12:49:38;11.50;;;4.20;;
50225;SDS011;36113;50.742;6.432;2023-05-18T12:52:08;6.47;;;4.03;;
50225;SDS011;36113;50.742;6.432;2023-05-18T12:54:34;10.95;;;4.13;;
50225;SDS011;36113;50.742;6.432;2023-05-18T12:57:04;8.13;;;3.77;;
50225;SDS011;36113;50.742;6.432;2023-05-18T12:59:31;4.38;;;3.80;;
50225;SDS011;36113;50.742;6.432;2023-05-18T13:01:57;4.30;;;3.57;;
50225;SDS011;36113;50.742;6.432;2023-05-18T13:04:31;7.43;;;3.87;;
50225;SDS011;36113;50.742;6.432;2023-05-18T13:06:58;10.25;;;4.22;;
50225;SDS011;36113;50.742;6.432;2023-05-18T13:09:23;8.67;;;3.60;;
50225;SDS011;36113;50.742;6.432;2023-05-18T13:11:49;6.47;;;3.30;;
50225;SDS011;36113;50.742;6.432;2023-05-18T13:14:18;5.90;;;3.40;;
50225;SDS011;36113;50.742;6.432;2023-05-18T13:16:48;8.45;;;4.32;;
50225;SDS011;36113;50.742;6.432;2023-05-18T13:19:15;8.13;;;3.47;;
50225;SDS011;36113;50.742;6.432;2023-05-18T13:21:42;7.93;;;3.40;;
50225;SDS011;36113;50.742;6.432;2023-05-18T13:24:09;4.85;;;3.10;;
50225;SDS011;36113;50.742;6.432;2023-05-18T13:26:34;5.87;;;3.13;;
50225;SDS011;36113;50.742;6.432;2023-05-18T13:29:00;5.03;;;3.17;;
50225;SDS011;36113;50.742;6.432;2023-05-18T13:31:25;9.80;;;3.83;;
50225;SDS011;36113;50.742;6.432;2023-05-18T13:33:53;5.45;;;3.45;;
50225;SDS011;36113;50.742;6.432;2023-05-18T13:36:18;10.10;;;4.27;;
50225;SDS011;36113;50.742;6.432;2023-05-18T13:38:43;10.83;;;4.07;;
50225;SDS011;36113;50.742;6.432;2023-05-18T13:41:10;13.17;;;4.27;;
50225;SDS011;36113;50.742;6.432;2023-05-18T13:46:01;7.22;;;3.75;;
50225;SDS011;36113;50.742;6.432;2023-05-18T13:48:27;8.17;;;3.73;;
50225;SDS011;36113;50.742;6.432;2023-05-18T13:50:53;5.77;;;3.10;;
50225;SDS011;36113;50.742;6.432;2023-05-18T13:53:19;5.63;;;3.20;;
50225;SDS011;36113;50.742;6.432;2023-05-18T13:55:44;9.60;;;4.07;;
50225;SDS011;36113;50.742;6.432;2023-05-18T13:58:09;9.40;;;3.10;;
50225;SDS011;36113;50.742;6.432;2023-05-18T14:00:35;4.37;;;3.53;;
50225;SDS011;36113;50.742;6.432;2023-05-18T14:03:00;5.13;;;3.03;;
50225;SDS011;36113;50.742;6.432;2023-05-18T14:05:26;9.37;;;3.43;;
50225;SDS011;36113;50.742;6.432;2023-05-18T14:07:52;4.67;;;3.43;;
50225;SDS011;36113;50.742;6.432;2023-05-18T14:10:17;12.13;;;4.03;;
50225;SDS011;36113;50.742;6.432;2023-05-18T14:12:43;7.70;;;3.60;;
50225;SDS011;36113;50.742;6.432;2023-05-18T14:15:09;6.07;;;3.67;;
50225;SDS011;36113;50.742;6.432;2023-05-18T14:17:35;10.45;;;3.85;;
50225;SDS011;36113;50.742;6.432;2023-05-18T14:20:01;7.77;;;3.77;;
50225;SDS011;36113;50.742;6.432;2023-05-18T14:22:27;10.17;;;3.20;;
50225;SDS011;36113;50.742;6.432;2023-05-18T14:24:54;9.77;;;3.25;;
50225;SDS011;36113;50.742;6.432;2023-05-18T14:27:19;8.60;;;3.47;;
50225;SDS011;36113;50.742;6.432;2023-05-18T14:29:45;10.77;;;3.43;;
50225;SDS011;36113;50.742;6.432;2023-05-18T14:32:11;6.50;;;3.30;;
50225;SDS011;36113;50.742;6.432;2023-05-18T14:34:36;7.23;;;3.80;;
50225;SDS011;36113;50.742;6.432;2023-05-18T14:37:01;4.00;;;3.37;;
50225;SDS011;36113;50.742;6.432;2023-05-18T14:39:26;7.87;;;4.17;;
50225;SDS011;36113;50.742;6.432;2023-05-18T14:41:52;9.03;;;3.80;;
50225;SDS011;36113;50.742;6.432;2023-05-18T14:44:17;8.17;;;4.03;;
50225;SDS011;36113;50.742;6.432;2023-05-18T14:46:43;9.80;;;4.30;;
50225;SDS011;36113;50.742;6.432;2023-05-18T14:49:08;12.10;;;4.70;;
50225;SDS011;36113;50.742;6.432;2023-05-18T14:51:33;7.53;;;4.03;;
50225;SDS011;36113;50.742;6.432;2023-05-18T14:53:59;10.07;;;3.80;;
50225;SDS011;36113;50.742;6.432;2023-05-18T14:56:24;10.97;;;4.30;;
50225;SDS011;36113;50.742;6.432;2023-05-18T14:58:50;9.43;;;4.70;;
50225;SDS011;36113;50.742;6.432;2023-05-18T15:01:16;6.57;;;4.43;;
50225;SDS011;36113;50.742;6.432;2023-05-18T15:03:41;13.07;;;4.23;;